createdAt,value
2019-03-01T00:00:07.363Z,9.60
2019-03-01T00:02:36.705Z,9.60
2019-03-01T00:05:53.049Z,9.50
2019-03-01T00:08:30.169Z,9.40
2019-03-01T00:11:45.717Z,9.30
2019-03-01T00:14:47.264Z,9.30
2019-03-01T00:17:44.332Z,9.30
2019-03-01T00:20:50.554Z,9.20
2019-03-01T00:24:03.747Z,9.10
2019-03-01T00:27:26.284Z,9.10
2019-03-01T00:30:23.965Z,9.10
2019-03-01T00:33:14.444Z,9.10
2019-03-01T00:36:25.829Z,9.00
2019-03-01T00:39:34.923Z,9.00
2019-03-01T00:42:36.081Z,8.90
2019-03-01T00:45:05.462Z,8.90
2019-03-01T00:47:34.554Z,8.90
2019-03-01T00:50:03.856Z,8.90
2019-03-01T00:52:33.417Z,8.80
2019-03-01T00:55:03.132Z,8.80
2019-03-01T00:57:32.618Z,8.80
2019-03-01T01:00:02.257Z,8.80
2019-03-01T01:02:31.365Z,8.80
2019-03-01T01:05:01.028Z,8.70
2019-03-01T01:07:30.765Z,8.70
2019-03-01T01:10:00.300Z,8.70
2019-03-01T01:12:29.538Z,8.70
2019-03-01T01:14:58.998Z,8.70
2019-03-01T01:17:28.145Z,8.60
2019-03-01T01:19:57.214Z,8.60
2019-03-01T01:22:26.551Z,8.60
2019-03-01T01:24:56.390Z,8.60
2019-03-01T01:27:25.457Z,8.60
2019-03-01T01:29:54.618Z,8.60
2019-03-01T01:32:23.919Z,8.50
2019-03-01T01:34:53.092Z,8.50
2019-03-01T01:37:22.479Z,8.50
2019-03-01T01:39:52.287Z,8.40
2019-03-01T01:42:21.409Z,8.40
2019-03-01T01:44:50.617Z,8.30
2019-03-01T01:47:20.321Z,8.20
2019-03-01T01:49:49.513Z,8.20
2019-03-01T01:52:18.692Z,8.20
2019-03-01T01:54:47.765Z,8.10
2019-03-01T01:57:17.213Z,8.10
2019-03-01T01:59:46.948Z,8.10
2019-03-01T02:02:16.023Z,8.10
2019-03-01T02:04:45.391Z,8.10
2019-03-01T02:07:14.620Z,8.00
2019-03-01T02:09:43.790Z,8.10
2019-03-01T02:12:13.439Z,8.00
2019-03-01T02:14:43.114Z,8.10
2019-03-01T02:17:12.268Z,8.10
2019-03-01T02:19:41.547Z,8.10
2019-03-01T02:22:11.327Z,8.10
2019-03-01T02:24:40.796Z,8.10
2019-03-01T02:27:25.019Z,8.20
2019-03-01T02:29:54.442Z,8.20
2019-03-01T02:32:48.877Z,8.20
2019-03-01T02:35:22.460Z,8.30
2019-03-01T02:37:52.861Z,8.30
2019-03-01T02:40:22.357Z,8.30
2019-03-01T02:42:51.511Z,8.30
2019-03-01T02:45:21.869Z,8.30
2019-03-01T02:47:51.016Z,8.30
2019-03-01T02:50:20.860Z,8.30
2019-03-01T02:52:50.434Z,8.30
2019-03-01T02:55:20.485Z,8.30
2019-03-01T02:57:50.076Z,8.20
2019-03-01T03:00:21.347Z,8.20
2019-03-01T03:02:52.265Z,8.20
2019-03-01T03:05:21.639Z,8.20
2019-03-01T03:07:58.616Z,8.10
2019-03-01T03:10:28.319Z,8.10
2019-03-01T03:13:00.486Z,8.10
2019-03-01T03:15:49.165Z,8.10
2019-03-01T03:18:18.611Z,8.10
2019-03-01T03:20:48.100Z,8.10
2019-03-01T03:23:17.202Z,8.00
2019-03-01T03:25:46.346Z,8.00
2019-03-01T03:28:15.702Z,8.00
2019-03-01T03:30:45.500Z,8.00
2019-03-01T03:33:14.971Z,8.00
2019-03-01T03:35:44.540Z,8.00
2019-03-01T03:38:13.611Z,8.00
2019-03-01T03:40:42.741Z,8.00
2019-03-01T03:43:11.881Z,8.00
2019-03-01T03:45:41.163Z,8.00
2019-03-01T03:48:10.392Z,8.00
2019-03-01T03:50:39.445Z,7.90
2019-03-01T03:53:09.258Z,7.90
2019-03-01T03:55:38.605Z,7.90
2019-03-01T03:58:08.238Z,7.90
2019-03-01T04:00:38.661Z,7.90
2019-03-01T04:03:07.803Z,7.90
2019-03-01T04:05:37.951Z,7.90
2019-03-01T04:08:07.137Z,7.80
2019-03-01T04:10:36.242Z,7.80
2019-03-01T04:13:05.513Z,7.80
2019-03-01T04:15:34.766Z,7.80
2019-03-01T04:18:04.109Z,7.80
2019-03-01T04:20:33.496Z,7.80
2019-03-01T04:23:03.160Z,7.80
2019-03-01T04:25:32.549Z,7.80
2019-03-01T04:28:01.709Z,7.70
2019-03-01T04:30:31.037Z,7.70
2019-03-01T04:33:00.164Z,7.70
2019-03-01T04:35:29.406Z,7.70
2019-03-01T04:37:58.493Z,7.60
2019-03-01T04:40:27.609Z,7.60
2019-03-01T04:42:56.754Z,7.60
2019-03-01T04:45:26.272Z,7.60
2019-03-01T04:47:55.561Z,7.60
2019-03-01T04:50:24.704Z,7.60
2019-03-01T04:53:12.863Z,7.60
2019-03-01T04:55:42.056Z,7.60
2019-03-01T04:58:11.304Z,7.60
2019-03-01T05:00:40.385Z,7.60
2019-03-01T05:03:09.663Z,7.70
2019-03-01T05:05:39.282Z,7.70
2019-03-01T05:08:09.191Z,7.70
2019-03-01T05:10:38.325Z,7.70
2019-03-01T05:13:07.417Z,7.70
2019-03-01T05:15:36.623Z,7.80
2019-03-01T05:18:05.802Z,7.80
2019-03-01T05:20:35.169Z,7.80
2019-03-01T05:23:04.606Z,7.80
2019-03-01T05:25:34.145Z,7.80
2019-03-01T05:28:03.239Z,7.80
2019-03-01T05:30:32.678Z,7.80
2019-03-01T05:33:02.066Z,7.80
2019-03-01T05:35:31.192Z,7.80
2019-03-01T05:38:00.459Z,7.80
2019-03-01T05:40:29.682Z,7.80
2019-03-01T05:42:58.878Z,7.80
2019-03-01T05:45:29.467Z,7.80
2019-03-01T05:47:58.536Z,7.80
2019-03-01T05:50:27.709Z,7.80
2019-03-01T05:52:56.730Z,7.80
2019-03-01T05:55:25.912Z,7.80
2019-03-01T05:58:32.350Z,7.80
2019-03-01T06:01:14.448Z,7.80
2019-03-01T06:04:19.866Z,7.80
2019-03-01T06:07:34.366Z,7.80
2019-03-01T06:10:37.020Z,7.80
2019-03-01T06:13:33.313Z,7.80
2019-03-01T06:16:46.295Z,7.80
2019-03-01T06:19:34.580Z,7.80
2019-03-01T06:22:37.042Z,7.80
2019-03-01T06:25:27.436Z,7.80
2019-03-01T06:28:30.061Z,7.80
2019-03-01T06:31:41.534Z,7.80
2019-03-01T06:34:23.896Z,7.80
2019-03-01T06:37:16.842Z,7.80
2019-03-01T06:40:44.213Z,7.80
2019-03-01T06:44:06.453Z,7.80
2019-03-01T06:46:59.018Z,7.80
2019-03-01T06:49:47.544Z,7.80
2019-03-01T06:52:18.420Z,7.80
2019-03-01T06:54:47.545Z,7.80
2019-03-01T06:57:16.645Z,7.80
2019-03-01T06:59:45.744Z,7.90
2019-03-01T07:02:19.231Z,7.90
2019-03-01T07:04:48.309Z,7.90
2019-03-01T07:07:17.388Z,7.90
2019-03-01T07:09:46.554Z,7.90
2019-03-01T07:12:15.672Z,8.00
2019-03-01T07:14:45.117Z,8.00
2019-03-01T07:17:14.547Z,8.00
2019-03-01T07:19:43.661Z,8.00
2019-03-01T07:22:12.729Z,8.00
2019-03-01T07:24:41.868Z,8.00
2019-03-01T07:27:12.312Z,8.00
2019-03-01T07:29:41.803Z,8.10
2019-03-01T07:32:10.912Z,8.10
2019-03-01T07:34:40.064Z,8.20
2019-03-01T07:37:09.253Z,8.30
2019-03-01T07:39:38.641Z,8.30
2019-03-01T07:42:07.782Z,8.40
2019-03-01T07:44:36.958Z,8.40
2019-03-01T07:47:06.109Z,8.40
2019-03-01T07:49:35.177Z,8.40
2019-03-01T07:52:04.921Z,8.40
2019-03-01T07:54:34.920Z,8.40
2019-03-01T07:57:04.030Z,8.30
2019-03-01T07:59:37.905Z,8.40
2019-03-01T08:02:04.986Z,8.40
2019-03-01T08:04:35.840Z,8.40
2019-03-01T08:07:05.028Z,8.40
2019-03-01T08:09:36.088Z,8.50
2019-03-01T08:12:07.252Z,8.60
2019-03-01T08:14:36.136Z,8.70
2019-03-01T08:17:05.345Z,8.80
2019-03-01T08:19:34.449Z,8.90
2019-03-01T08:22:03.600Z,8.90
2019-03-01T08:24:32.761Z,8.90
2019-03-01T08:27:01.870Z,8.80
2019-03-01T08:29:34.086Z,8.80
2019-03-01T08:32:02.266Z,8.80
2019-03-01T08:34:31.373Z,8.80
2019-03-01T08:37:00.466Z,8.80
2019-03-01T08:39:29.667Z,8.90
2019-03-01T08:42:01.209Z,8.90
2019-03-01T08:44:29.892Z,9.00
2019-03-01T08:46:59.238Z,9.00
2019-03-01T08:49:29.038Z,9.00
2019-03-01T08:52:01.422Z,9.00
2019-03-01T08:54:31.059Z,8.90
2019-03-01T08:57:00.617Z,8.90
2019-03-01T08:59:29.891Z,9.00
2019-03-01T09:01:59.007Z,9.00
2019-03-01T09:04:28.152Z,9.10
2019-03-01T09:06:57.398Z,9.20
2019-03-01T09:09:26.524Z,9.30
2019-03-01T09:11:55.742Z,9.40
2019-03-01T09:14:26.148Z,9.50
2019-03-01T09:16:56.380Z,9.50
2019-03-01T09:19:26.204Z,9.50
2019-03-01T09:21:55.897Z,9.70
2019-03-01T09:24:25.684Z,9.80
2019-03-01T09:26:57.608Z,10.00
2019-03-01T09:29:27.139Z,10.20
2019-03-01T09:31:57.785Z,10.50
2019-03-01T09:34:28.585Z,10.60
2019-03-01T09:36:58.811Z,10.80
2019-03-01T09:39:27.897Z,11.00
2019-03-01T09:42:03.264Z,11.00
2019-03-01T09:44:28.580Z,11.00
2019-03-01T09:46:58.506Z,10.90
2019-03-01T09:49:28.619Z,10.80
2019-03-01T09:51:58.411Z,10.70
2019-03-01T09:54:27.513Z,10.60
2019-03-01T09:56:57.023Z,10.50
2019-03-01T09:59:26.153Z,10.50
2019-03-01T10:01:55.232Z,10.50
2019-03-01T10:04:24.620Z,10.50
2019-03-01T10:06:53.710Z,10.50
2019-03-01T10:09:22.906Z,10.70
2019-03-01T10:11:52.000Z,10.90
2019-03-01T10:14:21.448Z,11.10
2019-03-01T10:16:54.607Z,11.30
2019-03-01T10:19:23.814Z,11.40
2019-03-01T10:21:53.216Z,11.50
2019-03-01T10:24:22.600Z,11.60
2019-03-01T10:26:51.737Z,11.70
2019-03-01T10:29:20.836Z,11.80
2019-03-01T10:31:50.609Z,11.90
2019-03-01T10:34:19.681Z,11.90
2019-03-01T10:36:49.125Z,11.90
2019-03-01T10:39:18.212Z,11.70
2019-03-01T10:41:48.705Z,11.50
2019-03-01T10:44:18.119Z,11.30
2019-03-01T10:46:47.218Z,11.10
2019-03-01T10:49:16.373Z,11.10
2019-03-01T10:51:45.479Z,11.10
2019-03-01T10:54:14.576Z,11.20
2019-03-01T10:56:43.682Z,11.30
2019-03-01T10:59:12.804Z,11.40
2019-03-01T11:01:41.940Z,11.60
2019-03-01T11:04:11.112Z,11.70
2019-03-01T11:06:40.245Z,11.80
2019-03-01T11:09:09.342Z,11.90
2019-03-01T11:11:38.433Z,11.80
2019-03-01T11:14:07.937Z,11.70
2019-03-01T11:16:37.068Z,11.60
2019-03-01T11:19:06.199Z,11.50
2019-03-01T11:21:35.379Z,11.50
2019-03-01T11:24:04.511Z,11.70
2019-03-01T11:26:33.611Z,11.90
2019-03-01T11:29:02.764Z,12.00
2019-03-01T11:31:31.977Z,12.10
2019-03-01T11:34:01.430Z,12.00
2019-03-01T11:36:30.549Z,11.90
2019-03-01T11:38:59.777Z,11.80
2019-03-01T11:41:28.958Z,11.90
2019-03-01T11:43:58.448Z,12.10
2019-03-01T11:46:27.704Z,12.20
2019-03-01T11:48:56.970Z,12.20
2019-03-01T11:51:27.764Z,12.10
2019-03-01T11:53:57.425Z,12.00
2019-03-01T11:56:26.766Z,11.80
2019-03-01T11:58:55.853Z,11.60
2019-03-01T12:01:24.946Z,11.40
2019-03-01T12:03:54.401Z,11.30
2019-03-01T12:06:23.712Z,11.10
2019-03-01T12:08:53.197Z,11.00
2019-03-01T12:11:22.318Z,11.00
2019-03-01T12:13:52.024Z,11.00
2019-03-01T12:16:21.215Z,11.00
2019-03-01T12:18:50.277Z,11.00
2019-03-01T12:21:19.616Z,11.10
2019-03-01T12:23:48.698Z,11.20
2019-03-01T12:26:17.921Z,11.30
2019-03-01T12:28:47.009Z,11.30
2019-03-01T12:31:16.421Z,11.30
2019-03-01T12:33:45.584Z,11.30
2019-03-01T12:36:14.662Z,11.30
2019-03-01T12:38:43.714Z,11.30
2019-03-01T12:41:12.939Z,11.10
2019-03-01T12:43:42.040Z,11.10
2019-03-01T12:46:11.136Z,11.10
2019-03-01T12:48:40.662Z,11.20
2019-03-01T12:51:09.919Z,11.20
2019-03-01T12:53:39.000Z,11.10
2019-03-01T12:56:08.334Z,11.10
2019-03-01T12:58:37.429Z,11.10
2019-03-01T13:01:06.565Z,11.10
2019-03-01T13:03:35.697Z,11.20
2019-03-01T13:06:05.361Z,11.40
2019-03-01T13:08:34.533Z,11.60
2019-03-01T13:11:03.642Z,11.80
2019-03-01T13:13:34.671Z,11.90
2019-03-01T13:16:04.365Z,12.00
2019-03-01T13:18:34.058Z,12.10
2019-03-01T13:21:05.276Z,12.10
2019-03-01T13:23:34.279Z,12.20
2019-03-01T13:26:06.094Z,12.10
2019-03-01T13:28:34.208Z,12.10
2019-03-01T13:31:03.642Z,12.00
2019-03-01T13:33:37.525Z,11.90
2019-03-01T13:36:07.612Z,11.90
2019-03-01T13:38:36.850Z,11.90
2019-03-01T13:41:06.176Z,11.90
2019-03-01T13:43:35.615Z,11.80
2019-03-01T13:46:06.415Z,11.70
2019-03-01T13:48:35.585Z,11.70
2019-03-01T13:51:04.681Z,11.70
2019-03-01T13:53:35.274Z,11.60
2019-03-01T13:56:06.056Z,11.60
2019-03-01T13:58:37.896Z,11.60
2019-03-01T14:01:07.675Z,11.60
2019-03-01T14:03:36.804Z,11.60
2019-03-01T14:06:05.905Z,11.50
2019-03-01T14:08:35.029Z,11.40
2019-03-01T14:11:04.101Z,11.10
2019-03-01T14:13:33.188Z,11.00
2019-03-01T14:16:02.301Z,10.90
2019-03-01T14:18:33.347Z,10.70
2019-03-01T14:21:03.897Z,10.60
2019-03-01T14:23:33.448Z,10.60
2019-03-01T14:26:02.617Z,10.50
2019-03-01T14:28:32.198Z,10.40
2019-03-01T14:31:03.976Z,10.30
2019-03-01T14:33:33.871Z,10.20
2019-03-01T14:36:03.821Z,10.00
2019-03-01T14:38:32.969Z,10.00
2019-03-01T14:41:02.120Z,9.90
2019-03-01T14:43:31.295Z,9.90
2019-03-01T14:46:00.492Z,9.90
2019-03-01T14:48:29.597Z,9.90
2019-03-01T14:50:58.681Z,9.80
2019-03-01T14:53:31.131Z,9.90
2019-03-01T14:56:09.600Z,10.00
2019-03-01T14:59:38.086Z,10.00
2019-03-01T15:02:15.846Z,10.00
2019-03-01T15:04:45.053Z,10.10
2019-03-01T15:07:14.179Z,10.10
2019-03-01T15:09:43.269Z,10.10
2019-03-01T15:12:16.027Z,10.10
2019-03-01T15:14:46.701Z,10.10
2019-03-01T15:17:14.929Z,10.20
2019-03-01T15:19:44.540Z,10.30
2019-03-01T15:22:14.458Z,10.20
2019-03-01T15:24:43.801Z,10.10
2019-03-01T15:27:12.889Z,10.10
2019-03-01T15:29:42.369Z,10.00
2019-03-01T15:32:12.554Z,9.90
2019-03-01T15:34:41.814Z,9.80
2019-03-01T15:37:11.025Z,9.70
2019-03-01T15:39:40.168Z,9.60
2019-03-01T15:42:10.084Z,9.60
2019-03-01T15:44:39.337Z,9.60
2019-03-01T15:47:08.513Z,9.60
2019-03-01T15:49:37.566Z,9.60
2019-03-01T15:52:06.692Z,9.70
2019-03-01T15:54:36.948Z,9.70
2019-03-01T15:57:06.079Z,9.70
2019-03-01T15:59:35.232Z,9.70
2019-03-01T16:02:04.321Z,9.70
2019-03-01T16:04:34.431Z,9.70
2019-03-01T16:07:03.614Z,9.70
2019-03-01T16:09:33.393Z,9.50
2019-03-01T16:12:02.475Z,9.40
2019-03-01T16:14:31.654Z,9.30
2019-03-01T16:17:00.751Z,9.20
2019-03-01T16:19:29.805Z,9.20
2019-03-01T16:21:59.260Z,9.20
2019-03-01T16:24:28.405Z,9.20
2019-03-01T16:26:57.487Z,9.20
2019-03-01T16:29:26.581Z,9.20
2019-03-01T16:31:55.672Z,9.10
2019-03-01T16:34:24.760Z,9.10
2019-03-01T16:36:56.416Z,9.10
2019-03-01T16:39:25.799Z,9.00
2019-03-01T16:41:55.280Z,8.90
2019-03-01T16:44:24.621Z,8.90
2019-03-01T16:46:54.121Z,8.90
2019-03-01T16:49:23.517Z,8.90
2019-03-01T16:51:54.790Z,8.90
2019-03-01T16:54:24.002Z,8.80
2019-03-01T16:56:53.089Z,8.90
2019-03-01T16:59:22.153Z,8.90
2019-03-01T17:01:51.562Z,8.80
2019-03-01T17:04:20.713Z,8.80
2019-03-01T17:06:50.362Z,8.70
2019-03-01T17:09:19.632Z,8.70
2019-03-01T17:11:48.733Z,8.70
2019-03-01T17:14:17.905Z,8.60
2019-03-01T17:16:46.980Z,8.60
2019-03-01T17:19:16.097Z,8.60
2019-03-01T17:21:50.565Z,8.60
2019-03-01T17:24:16.351Z,8.60
2019-03-01T17:26:45.582Z,8.60
2019-03-01T17:29:14.781Z,8.50
2019-03-01T17:31:43.933Z,8.50
2019-03-01T17:34:13.018Z,8.50
2019-03-01T17:36:42.197Z,8.50
2019-03-01T17:39:11.351Z,8.40
2019-03-01T17:41:44.481Z,8.40
2019-03-01T17:44:11.284Z,8.40
2019-03-01T17:46:40.411Z,8.40
2019-03-01T17:49:09.573Z,8.30
2019-03-01T17:51:38.801Z,8.20
2019-03-01T17:54:08.189Z,8.10
2019-03-01T17:56:37.345Z,8.00
2019-03-01T17:59:08.224Z,7.90
2019-03-01T18:01:39.066Z,7.90
2019-03-01T18:04:08.174Z,7.80
2019-03-01T18:06:37.353Z,7.80
2019-03-01T18:09:07.055Z,7.80
2019-03-01T18:11:36.304Z,7.90
2019-03-01T18:14:05.376Z,7.90
2019-03-01T18:16:34.492Z,7.90
2019-03-01T18:19:03.564Z,8.00
2019-03-01T18:21:32.708Z,8.00
2019-03-01T18:24:02.443Z,8.00
2019-03-01T18:26:31.593Z,8.10
2019-03-01T18:29:00.873Z,8.30
2019-03-01T18:31:34.488Z,8.30
2019-03-01T18:34:02.438Z,8.40
2019-03-01T18:36:32.391Z,8.40
2019-03-01T18:39:03.715Z,8.40
2019-03-01T18:41:32.371Z,8.40
2019-03-01T18:44:01.777Z,8.30
2019-03-01T18:46:30.993Z,8.30
2019-03-01T18:49:00.147Z,8.30
2019-03-01T18:51:29.296Z,8.30
2019-03-01T18:54:00.611Z,8.30
2019-03-01T18:56:29.729Z,8.30
2019-03-01T18:58:58.902Z,8.30
2019-03-01T19:01:28.054Z,8.30
2019-03-01T19:03:58.998Z,8.30
2019-03-01T19:06:29.338Z,8.30
2019-03-01T19:08:59.003Z,8.30
2019-03-01T19:11:28.078Z,8.20
2019-03-01T19:13:58.550Z,8.20
2019-03-01T19:16:28.537Z,8.20
2019-03-01T19:18:58.796Z,8.20
2019-03-01T19:21:28.053Z,8.20
2019-03-01T19:23:57.149Z,8.20
2019-03-01T19:26:26.257Z,8.20
2019-03-01T19:28:58.967Z,8.20
2019-03-01T19:31:27.814Z,8.20
2019-03-01T19:33:57.228Z,8.20
2019-03-01T19:36:26.542Z,8.20
2019-03-01T19:38:56.811Z,8.20
2019-03-01T19:41:26.489Z,8.10
2019-03-01T19:43:57.616Z,8.00
2019-03-01T19:46:26.623Z,7.90
2019-03-01T19:48:57.689Z,7.80
2019-03-01T19:51:27.270Z,7.70
2019-03-01T19:53:57.423Z,7.60
2019-03-01T19:56:27.217Z,7.60
2019-03-01T19:58:59.260Z,7.50
2019-03-01T20:01:28.187Z,7.50
2019-03-01T20:03:57.279Z,7.50
2019-03-01T20:06:26.423Z,7.40
2019-03-01T20:08:55.530Z,7.40
2019-03-01T20:11:26.712Z,7.40
2019-03-01T20:13:55.768Z,7.30
2019-03-01T20:16:24.911Z,7.30
2019-03-01T20:18:54.717Z,7.30
2019-03-01T20:21:23.933Z,7.30
2019-03-01T20:23:53.156Z,7.30
2019-03-01T20:26:23.505Z,7.30
2019-03-01T20:28:53.838Z,7.30
2019-03-01T20:31:22.974Z,7.20
2019-03-01T20:33:52.143Z,7.20
2019-03-01T20:36:21.633Z,7.20
2019-03-01T20:38:50.745Z,7.20
2019-03-01T20:41:19.841Z,7.20
2019-03-01T20:43:49.171Z,7.20
2019-03-01T20:46:18.526Z,7.10
2019-03-01T20:48:47.599Z,7.20
2019-03-01T20:51:16.845Z,7.20
2019-03-01T20:53:49.398Z,7.20
2019-03-01T20:56:17.231Z,7.20
2019-03-01T20:58:46.440Z,7.20
2019-03-01T21:01:16.216Z,7.20
2019-03-01T21:03:45.312Z,7.20
2019-03-01T21:06:15.017Z,7.20
2019-03-01T21:08:44.107Z,7.20
2019-03-01T21:11:13.219Z,7.20
2019-03-01T21:13:45.843Z,7.10
2019-03-01T21:16:13.437Z,7.10
2019-03-01T21:18:42.677Z,7.10
2019-03-01T21:21:11.792Z,7.10
2019-03-01T21:23:40.972Z,7.10
2019-03-01T21:26:12.059Z,7.10
2019-03-01T21:28:41.807Z,7.10
2019-03-01T21:31:11.192Z,7.10
2019-03-01T21:33:40.295Z,7.10
2019-03-01T21:36:09.737Z,7.10
2019-03-01T21:38:38.771Z,7.10
2019-03-01T21:41:09.759Z,7.10
2019-03-01T21:43:38.628Z,7.10
2019-03-01T21:46:08.580Z,7.00
2019-03-01T21:48:37.921Z,7.00
2019-03-01T21:51:07.241Z,7.00
2019-03-01T21:53:36.580Z,7.00
2019-03-01T21:56:08.542Z,6.90
2019-03-01T21:58:38.506Z,6.90
2019-03-01T22:01:09.238Z,6.90
2019-03-01T22:03:40.570Z,6.90
2019-03-01T22:06:09.252Z,6.90
2019-03-01T22:08:38.330Z,6.90
2019-03-01T22:11:10.495Z,6.90
2019-03-01T22:13:38.507Z,6.90
2019-03-01T22:16:07.677Z,6.90
2019-03-01T22:18:36.826Z,6.90
2019-03-01T22:21:06.177Z,6.90
2019-03-01T22:23:35.264Z,6.90
2019-03-01T22:26:04.376Z,6.90
2019-03-01T22:28:36.127Z,6.80
2019-03-01T22:31:04.336Z,6.80
2019-03-01T22:33:33.701Z,6.80
2019-03-01T22:36:02.799Z,6.80
2019-03-01T22:38:31.980Z,6.80
2019-03-01T22:41:03.940Z,6.80
2019-03-01T22:43:31.912Z,6.80
2019-03-01T22:46:01.173Z,6.80
2019-03-01T22:48:30.270Z,6.80
2019-03-01T22:50:59.342Z,6.80
2019-03-01T22:53:28.481Z,6.80
2019-03-01T22:55:57.863Z,6.90
2019-03-01T22:58:27.305Z,6.90
2019-03-01T23:01:16.026Z,6.90
2019-03-01T23:03:51.596Z,6.80
2019-03-01T23:06:21.029Z,6.80
2019-03-01T23:08:50.134Z,6.70
2019-03-01T23:11:19.313Z,6.60
2019-03-01T23:13:48.383Z,6.60
2019-03-01T23:16:18.897Z,6.50
2019-03-01T23:18:56.379Z,6.50
2019-03-01T23:21:19.241Z,6.50
2019-03-01T23:23:48.567Z,6.60
2019-03-01T23:26:18.585Z,6.60
2019-03-01T23:28:48.590Z,6.50
2019-03-01T23:31:17.999Z,6.60
2019-03-01T23:33:47.425Z,6.50
2019-03-01T23:36:16.600Z,6.50
2019-03-01T23:38:46.651Z,6.50
2019-03-01T23:41:16.572Z,6.50
2019-03-01T23:43:45.723Z,6.50
2019-03-01T23:46:14.777Z,6.60
2019-03-01T23:48:45.503Z,6.60
2019-03-01T23:51:14.868Z,6.60
2019-03-01T23:53:44.025Z,6.60
2019-03-01T23:56:13.305Z,6.60
2019-03-01T23:58:42.412Z,6.60
